Terminal Aerodrome Forecast
Issued by NWS

Home | Current Version | Previous Version | Text Only | Print | Product List | Glossary On
Versions: 1 2 3 4 5 6 7 8 9 10 11 12 13 14 15 16 17 18 19 20 21 22 23 24 25
825
FTUS46 KMTR 121127
TAFSFO
TAF
KSFO 121127Z 1212/1318 VRB03KT P6SM FEW003 FEW200
      TEMPO 1214/1218 6SM HZ
     FM121900 29007KT P6SM FEW006 SCT200
     FM122200 29012KT P6SM BKN200
     FM130800 29008KT P6SM FEW009 SCT200
     FM131400 28008KT 6SM HZ FEW006 SCT150=

USA.gov is the U.S. government's official web portal to all federal, state and local government web resources and services.